Terminal Aerodrome Forecast
Issued by NWS

Home | Current Version | Previous Version | Graphics & Text | Print | Product List | Glossary Off
Versions: 1 2 3 4 5 6 7 8 9 10 11 12 13 14 15 16 17 18

716
FTUS43 KBIS 200541
TAFJMS
TAF
KJMS 200541Z 2006/2106 16007KT 3/4SM BR OVC002
     FM201100 14007KT 1/2SM FG OVC002
     FM201700 13008KT 1SM BR OVC004
     FM210100 13007KT 3/4SM BR OVC003=

USA.gov is the U.S. government's official web portal to all federal, state and local government web resources and services.